Terminal Aerodrome Forecast
Issued by NWS Newport/Morehead City, NC

Home | Current Version | Previous Version | Text Only | Print | Product List | Glossary On
Versions: 1 2 3 4 5 6 7 8 9 10 11 12 13 14 15
000
FTUS42 KMHX 240849 AAA
TAFEWN
TAF AMD
KEWN 240849Z 2409/2506 06008KT 6SM -SHRA OVC004
     FM241100 09010G15KT 5SM -SHRA SCT007 OVC010
     FM241700 12013G24KT 5SM -SHRA OVC035
     FM250100 09014G23KT 2SM +SHRA VCTS SCT007 OVC025CB=

USA.gov is the U.S. government's official web portal to all federal, state and local government web resources and services.